Terminal Aerodrome Forecast
Issued by NWS

Home | Current Version | Previous Version | Text Only | Print | Product List | Glossary On
Versions: 1 2 3 4 5 6 7 8 9 10 11 12 13 14
000
FTAK31 PAJN 292332
TAFASI
TAF
PASI 292332Z 3000/3024 VRB03KT P6SM SKC WS020/06025KT
     FM300300 33010KT P6SM SKC WS020/06030KT
     FM300900 01010KT P6SM SKC WS020/06040KT
     FM302100 04010KT P6SM SKC WS020/06025KT=

USA.gov is the U.S. government's official web portal to all federal, state and local government web resources and services.